Time;durP1;ratioP1;P1;durP2;ratioP2;P2;SDS_P1;SDS_P2;PMS_P1;PMS_P2;Temp;Humidity;BMP_temperature;BMP_pressure;BME280_temperature;BME280_humidity;BME280_pressure;Samples;Min_cycle;Max_cycle;Signal;HPM_P1;HPM_P2
2020/12/29 00:00:08;;;;;;;;;;;;;;;27.08;25.86;100209.28;5117653;27;1898;-41
2020/12/29 00:02:34;;;;;;;;;;;;;;;27.55;25.09;100209.59;5117225;28;754;-38
2020/12/29 00:04:59;;;;;;;;;;;;;;;27.63;25.16;100212.16;5116995;27;996;-38
2020/12/29 00:07:24;;;;;;;;;;;;;;;27.17;25.72;100201.88;5117333;28;819;-40
2020/12/29 00:09:49;;;;;;;;;;;;;;;26.95;26.15;100205.44;5125466;27;1189;-38
2020/12/29 00:12:15;;;;;;;;;;;;;;;27.35;25.82;100204.09;5137754;27;795;-38
2020/12/29 00:14:40;;;;;;;;;;;;;;;27.60;25.39;100211.69;5137948;27;786;-37
2020/12/29 00:17:05;;;;;;;;;;;;;;;27.13;25.76;100202.28;5137801;27;799;-38
2020/12/29 00:19:31;;;;;;;;;;;;;;;27.05;25.74;100194.31;5137249;27;1977;-39
2020/12/29 00:21:56;;;;;;;;;;;;;;;27.35;25.46;100194.13;5134482;27;996;-39
2020/12/29 00:24:21;;;;;;;;;;;;;;;27.66;25.17;100191.16;5137741;28;803;-38
2020/12/29 00:26:46;;;;;;;;;;;;;;;27.37;25.51;100183.97;5137954;27;735;-38
2020/12/29 00:29:12;;;;;;;;;;;;;;;27.09;25.89;100176.69;5137985;28;1004;-40
2020/12/29 00:31:37;;;;;;;;;;;;;;;26.86;26.08;100180.44;5137849;28;708;-40
2020/12/29 00:34:02;;;;;;;;;;;;;;;27.46;25.38;100197.31;5137503;28;793;-38
2020/12/29 00:36:28;;;;;;;;;;;;;;;27.71;25.14;100204.94;5123939;27;952;-39
2020/12/29 00:38:53;;;;;;;;;;;;;;;27.18;25.85;100207.09;5131475;28;1945;-40
2020/12/29 00:41:18;;;;;;;;;;;;;;;26.88;26.27;100202.69;5137511;27;833;-41
2020/12/29 00:43:43;;;;;;;;;;;;;;;27.02;26.19;100214.47;5137469;27;862;-40
2020/12/29 00:46:10;;;;;;;;;;;;;;;27.51;25.46;100211.88;5137364;27;751;-41
2020/12/29 00:48:35;;;;;;;;;;;;;;;27.40;25.65;100201.63;5137305;27;1196;-41
2020/12/29 00:51:04;;;;;;;;;;;;;;;27.01;26.06;100193.00;5127588;27;1012;-39
2020/12/29 00:53:29;;;;;;;;;;;;;;;26.86;26.38;100203.91;5116857;28;807;-37
2020/12/29 00:55:55;;;;;;;;;;;;;;;27.37;25.87;100200.16;5116783;28;862;-39
2020/12/29 00:58:20;;;;;;;;;;;;;;;27.47;25.67;100193.56;5116926;28;759;-40
2020/12/29 01:00:45;;;;;;;;;;;;;;;27.17;26.09;100193.78;5116409;28;1905;-39
2020/12/29 01:03:10;;;;;;;;;;;;;;;26.95;26.07;100191.09;5120291;28;822;-40
2020/12/29 01:05:36;;;;;;;;;;;;;;;27.41;25.64;100197.06;5120498;27;953;-37
2020/12/29 01:08:01;;;;;;;;;;;;;;;27.46;25.42;100187.31;5120259;28;842;-38
2020/12/29 01:10:26;;;;;;;;;;;;;;;27.21;25.49;100173.47;5134405;27;1110;-39
2020/12/29 01:12:51;;;;;;;;;;;;;;;27.03;25.73;100164.00;5141275;27;755;-39
2020/12/29 01:15:17;;;;;;;;;;;;;;;27.31;25.66;100176.63;5140511;27;999;-36
2020/12/29 01:17:42;;;;;;;;;;;;;;;27.63;24.91;100150.00;5141041;27;755;-39
2020/12/29 01:20:07;;;;;;;;;;;;;;;27.20;25.46;100167.22;5138009;27;1922;-39
2020/12/29 01:22:33;;;;;;;;;;;;;;;27.05;25.74;100155.69;5120422;28;822;-38
2020/12/29 01:24:58;;;;;;;;;;;;;;;27.24;25.62;100146.88;5120135;28;771;-38
2020/12/29 01:27:23;;;;;;;;;;;;;;;27.66;24.88;100137.94;5120719;28;819;-39
2020/12/29 01:29:48;;;;;;;;;;;;;;;27.18;25.57;100136.03;5119897;28;755;-42
2020/12/29 01:32:14;;;;;;;;;;;;;;;26.79;25.91;100122.91;5119943;28;858;-38
2020/12/29 01:34:39;;;;;;;;;;;;;;;26.72;26.37;100103.13;5120337;28;798;-39
2020/12/29 01:37:04;;;;;;;;;;;;;;;27.15;25.99;100107.59;5120021;27;1000;-37
2020/12/29 01:39:29;;;;;;;;;;;;;;;27.34;25.64;100116.00;5119605;28;1910;-35
2020/12/29 01:41:55;;;;;;;;;;;;;;;26.84;26.34;100125.00;5120447;28;846;-38
2020/12/29 01:44:20;;;;;;;;;;;;;;;26.61;26.74;100109.91;5119950;28;763;-35
2020/12/29 01:46:46;;;;;;;;;;;;;;;26.73;26.84;100104.78;5119765;28;787;-37
2020/12/29 01:49:11;;;;;;;;;;;;;;;27.28;25.92;100114.09;5119816;28;886;-35
2020/12/29 01:51:37;;;;;;;;;;;;;;;26.94;26.47;100092.28;5119144;27;957;-37
2020/12/29 01:54:02;;;;;;;;;;;;;;;26.68;26.74;100089.19;5119654;28;818;-37
2020/12/29 01:56:28;;;;;;;;;;;;;;;26.55;27.28;100100.72;5119920;28;862;-35
2020/12/29 01:58:53;;;;;;;;;;;;;;;26.59;27.25;100103.88;5119456;28;1913;-35
2020/12/29 02:01:18;;;;;;;;;;;;;;;26.70;27.08;100110.56;5119490;28;835;-38
2020/12/29 02:03:43;;;;;;;;;;;;;;;26.64;27.27;100115.72;5118563;28;799;-36
2020/12/29 02:06:09;;;;;;;;;;;;;;;26.48;27.61;100119.53;5118469;27;987;-36
2020/12/29 02:08:34;;;;;;;;;;;;;;;26.38;27.70;100122.56;5119387;28;760;-37
2020/12/29 02:10:59;;;;;;;;;;;;;;;26.65;27.48;100121.97;5137980;27;1233;-37
2020/12/29 02:13:25;;;;;;;;;;;;;;;26.64;27.27;100109.50;5139627;27;803;-36
2020/12/29 02:15:50;;;;;;;;;;;;;;;26.48;27.53;100103.34;5140070;27;850;-38
2020/12/29 02:18:15;;;;;;;;;;;;;;;26.49;27.50;100104.19;5139640;27;1003;-35
2020/12/29 02:20:41;;;;;;;;;;;;;;;26.60;27.68;100092.03;5132432;27;1966;-38
2020/12/29 02:23:06;;;;;;;;;;;;;;;27.07;26.85;100095.09;5119089;28;740;-37
2020/12/29 02:25:31;;;;;;;;;;;;;;;26.50;27.39;100093.22;5119262;28;760;-35
2020/12/29 02:27:57;;;;;;;;;;;;;;;26.38;27.87;100092.06;5119124;28;787;-36
2020/12/29 02:30:22;;;;;;;;;;;;;;;26.90;27.03;100102.63;5118843;28;795;-35
2020/12/29 02:32:47;;;;;;;;;;;;;;;27.08;26.91;100095.91;5119204;28;815;-37
2020/12/29 02:35:15;;;;;;;;;;;;;;;26.61;27.30;100091.84;5118487;27;942;-37
2020/12/29 02:37:40;;;;;;;;;;;;;;;26.36;27.69;100110.31;5118699;28;775;-36
2020/12/29 02:40:05;;;;;;;;;;;;;;;26.36;28.02;100110.31;5118798;28;1898;-35
2020/12/29 02:42:31;;;;;;;;;;;;;;;25.96;28.69;100114.22;5118912;28;747;-37
2020/12/29 02:44:56;;;;;;;;;;;;;;;26.58;27.83;100119.19;5130334;27;870;-37
2020/12/29 02:47:21;;;;;;;;;;;;;;;26.46;27.97;100112.69;5139380;27;823;-35
2020/12/29 02:49:47;;;;;;;;;;;;;;;26.35;28.08;100108.63;5139124;27;803;-35
2020/12/29 02:52:12;;;;;;;;;;;;;;;26.50;27.80;100103.16;5118843;27;992;-38
2020/12/29 02:54:37;;;;;;;;;;;;;;;26.83;27.47;100121.47;5118660;28;804;-36
2020/12/29 02:57:03;;;;;;;;;;;;;;;26.39;28.01;100123.41;5118643;28;739;-36
2020/12/29 02:59:28;;;;;;;;;;;;;;;26.33;27.89;100124.16;5118289;28;1980;-39
2020/12/29 03:01:53;;;;;;;;;;;;;;;26.37;28.19;100122.75;5118377;28;817;-35
2020/12/29 03:04:19;;;;;;;;;;;;;;;26.51;28.07;100134.47;5118523;28;803;-36
2020/12/29 03:06:44;;;;;;;;;;;;;;;26.33;27.95;100126.84;5117786;27;941;-39
2020/12/29 03:09:09;;;;;;;;;;;;;;;26.31;28.16;100121.63;5121375;27;1067;-36
2020/12/29 03:11:34;;;;;;;;;;;;;;;26.17;28.32;100115.28;5138426;27;862;-37
2020/12/29 03:14:00;;;;;;;;;;;;;;;26.12;28.50;100117.72;5138397;27;810;-37
2020/12/29 03:16:26;;;;;;;;;;;;;;;26.00;28.66;100107.44;5138757;27;822;-37
2020/12/29 03:18:51;;;;;;;;;;;;;;;26.00;28.64;100107.44;5138599;27;1914;-36
2020/12/29 03:21:16;;;;;;;;;;;;;;;26.00;28.61;100106.59;5126034;27;957;-37
2020/12/29 03:23:42;;;;;;;;;;;;;;;25.91;28.69;100106.72;5117646;28;739;-38
2020/12/29 03:26:07;;;;;;;;;;;;;;;25.93;28.82;100120.00;5118117;28;803;-37
2020/12/29 03:28:32;;;;;;;;;;;;;;;25.94;28.87;100118.16;5117815;27;766;-36
2020/12/29 03:30:58;;;;;;;;;;;;;;;26.02;28.66;100124.28;5117473;28;808;-37
2020/12/29 03:33:23;;;;;;;;;;;;;;;25.92;28.79;100132.63;5118036;28;825;-36
2020/12/29 03:35:48;;;;;;;;;;;;;;;26.09;28.69;100135.09;5117326;27;945;-35
2020/12/29 03:38:13;;;;;;;;;;;;;;;26.50;28.09;100144.47;5117840;28;763;-38
2020/12/29 03:40:39;;;;;;;;;;;;;;;26.56;27.95;100129.34;5117678;28;1905;-38
2020/12/29 03:43:04;;;;;;;;;;;;;;;26.35;28.45;100133.75;5117988;28;842;-38
2020/12/29 03:45:29;;;;;;;;;;;;;;;26.15;28.63;100133.50;5117465;28;824;-38
2020/12/29 03:47:55;;;;;;;;;;;;;;;26.01;28.76;100124.44;5117651;28;906;-38
2020/12/29 03:50:20;;;;;;;;;;;;;;;26.69;27.84;100120.56;5117153;27;938;-36
2020/12/29 03:52:46;;;;;;;;;;;;;;;26.35;28.18;100122.94;5117285;28;870;-37
2020/12/29 03:55:11;;;;;;;;;;;;;;;26.14;28.66;100110.28;5117416;28;783;-38
2020/12/29 03:57:37;;;;;;;;;;;;;;;26.07;28.71;100099.44;5116324;28;759;-36
2020/12/29 04:00:05;;;;;;;;;;;;;;;25.94;29.02;100107.38;5116988;28;1905;-37
2020/12/29 04:02:31;;;;;;;;;;;;;;;26.04;28.69;100094.44;5117536;28;775;-38
2020/12/29 04:04:56;;;;;;;;;;;;;;;25.93;28.60;100090.38;5116908;27;957;-39
2020/12/29 04:07:21;;;;;;;;;;;;;;;25.90;28.82;100072.72;5117025;28;731;-37
2020/12/29 04:09:46;;;;;;;;;;;;;;;25.72;29.03;100061.53;5125414;27;1169;-35
2020/12/29 04:12:12;;;;;;;;;;;;;;;25.70;29.07;100082.44;5138011;27;763;-35
2020/12/29 04:14:37;;;;;;;;;;;;;;;25.66;29.10;100096.28;5132493;27;882;-38
2020/12/29 04:17:02;;;;;;;;;;;;;;;26.22;28.45;100103.91;5117335;28;740;-38
2020/12/29 04:19:28;;;;;;;;;;;;;;;25.97;28.98;100094.34;5116752;28;1909;-38
2020/12/29 04:21:53;;;;;;;;;;;;;;;26.55;27.66;100095.31;5116410;27;953;-38
2020/12/29 04:24:18;;;;;;;;;;;;;;;26.03;28.40;100095.44;5117621;28;755;-35
2020/12/29 04:26:43;;;;;;;;;;;;;;;25.85;28.95;100110.19;5117076;28;887;-36
2020/12/29 04:29:09;;;;;;;;;;;;;;;26.50;27.96;100130.97;5117036;28;743;-38
2020/12/29 04:31:34;;;;;;;;;;;;;;;26.50;27.69;100124.72;5116886;28;830;-37
2020/12/29 04:33:59;;;;;;;;;;;;;;;26.13;28.49;100130.16;5117125;28;758;-37
2020/12/29 04:36:25;;;;;;;;;;;;;;;26.05;28.86;100131.13;5118601;27;973;-38
2020/12/29 04:38:50;;;;;;;;;;;;;;;25.96;28.71;100129.59;5121208;28;811;-37
2020/12/29 04:41:16;;;;;;;;;;;;;;;25.91;28.79;100136.38;5121574;28;1970;-38
2020/12/29 04:43:41;;;;;;;;;;;;;;;25.80;28.92;100137.69;5120932;28;740;-38
2020/12/29 04:46:06;;;;;;;;;;;;;;;25.79;29.01;100143.28;5119640;28;823;-38
2020/12/29 04:48:32;;;;;;;;;;;;;;;25.73;29.05;100136.78;5121316;28;802;-36
2020/12/29 04:51:04;;;;;;;;;;;;;;;23.45;32.04;100128.16;5120246;27;961;-33
2020/12/29 04:53:29;;;;;;;;;;;;;;;24.97;30.00;100132.41;5120812;28;827;-32
2020/12/29 04:55:55;;;;;;;;;;;;;;;25.80;28.70;100136.84;5121151;28;738;-33
2020/12/29 04:58:20;;;;;;;;;;;;;;;25.20;29.46;100148.47;5125536;27;861;-33
2020/12/29 05:00:45;;;;;;;;;;;;;;;25.50;28.99;100151.19;5140275;27;1897;-33
2020/12/29 05:03:11;;;;;;;;;;;;;;;25.93;28.58;100149.66;5139852;27;1084;-43
2020/12/29 05:05:36;;;;;;;;;;;;;;;26.27;27.78;100161.66;5140684;27;992;-45
2020/12/29 05:08:01;;;;;;;;;;;;;;;25.85;28.57;100169.47;5141399;27;749;-39
2020/12/29 05:10:27;;;;;;;;;;;;;;;25.85;28.66;100184.78;5141438;27;1185;-44
2020/12/29 05:12:52;;;;;;;;;;;;;;;25.96;28.63;100191.56;5140906;27;739;-42
2020/12/29 05:15:18;;;;;;;;;;;;;;;25.77;28.89;100196.50;5141353;27;771;-44
2020/12/29 05:17:43;;;;;;;;;;;;;;;25.66;29.16;100203.19;5139809;27;1438;-39
2020/12/29 05:20:08;;;;;;;;;;;;;;;25.73;29.02;100204.13;5137758;27;1995;-42
2020/12/29 05:22:37;;;;;;;;;;;;;;;25.75;28.99;100203.94;5120674;28;767;-39
2020/12/29 05:25:03;;;;;;;;;;;;;;;25.76;29.13;100201.06;5120399;28;1268;-39
2020/12/29 05:27:29;;;;;;;;;;;;;;;25.55;29.51;100196.38;5119160;28;791;-42
2020/12/29 05:29:54;;;;;;;;;;;;;;;26.29;28.69;100191.09;5120718;28;814;-46
2020/12/29 05:32:21;;;;;;;;;;;;;;;26.44;28.30;100182.16;5118955;28;1392;-40
2020/12/29 05:34:46;;;;;;;;;;;;;;;26.47;28.85;100192.56;5125016;27;1285;-37
2020/12/29 05:37:15;;;;;;;;;;;;;;;26.75;27.89;100199.88;5137748;27;1178;-37
2020/12/29 05:39:41;;;;;;;;;;;;;;;26.63;28.29;100195.00;5140483;27;1901;-40
2020/12/29 05:42:06;;;;;;;;;;;;;;;26.23;29.37;100191.84;5140372;27;833;-42
2020/12/29 05:44:32;;;;;;;;;;;;;;;26.88;28.26;100191.03;5139677;27;759;-36
2020/12/29 05:46:58;;;;;;;;;;;;;;;26.85;28.37;100200.38;5139380;27;1084;-40
2020/12/29 05:49:23;;;;;;;;;;;;;;;26.72;28.37;100203.78;5139201;27;1082;-37
2020/12/29 05:51:49;;;;;;;;;;;;;;;26.58;29.26;100193.88;5137126;27;1331;-36
2020/12/29 05:54:16;;;;;;;;;;;;;;;27.09;28.45;100198.28;5140671;27;845;-41
2020/12/29 05:56:41;;;;;;;;;;;;;;;27.17;28.11;100201.88;5140037;27;793;-39
2020/12/29 05:59:06;;;;;;;;;;;;;;;26.94;28.53;100203.78;5138878;27;1898;-35
2020/12/29 06:01:35;;;;;;;;;;;;;;;26.65;29.53;100202.88;5139049;27;850;-39
2020/12/29 06:04:01;;;;;;;;;;;;;;;27.15;28.71;100210.19;5140195;27;763;-37
2020/12/29 06:06:27;;;;;;;;;;;;;;;27.33;28.42;100216.94;5126731;27;945;-43
2020/12/29 06:08:52;;;;;;;;;;;;;;;27.09;28.62;100206.38;5120152;27;1182;-40
2020/12/29 06:11:17;;;;;;;;;;;;;;;26.97;29.12;100218.72;5136074;27;910;-36
2020/12/29 06:13:46;;;;;;;;;;;;;;;26.97;29.22;100224.13;5138632;27;823;-36
2020/12/29 06:16:11;;;;;;;;;;;;;;;27.48;28.57;100233.88;5139962;27;811;-38
2020/12/29 06:18:36;;;;;;;;;;;;;;;27.29;28.55;100232.72;5138161;27;1063;-38
2020/12/29 06:21:03;;;;;;;;;;;;;;;27.08;28.86;100230.88;5129424;27;1917;-37
2020/12/29 06:23:28;;;;;;;;;;;;;;;27.43;28.76;100238.19;5119233;28;897;-42
2020/12/29 06:25:54;;;;;;;;;;;;;;;27.50;28.47;100239.09;5119629;28;807;-41
2020/12/29 06:28:19;;;;;;;;;;;;;;;27.39;28.56;100233.19;5119053;28;747;-41
2020/12/29 06:30:44;;;;;;;;;;;;;;;27.16;28.83;100238.84;5117547;28;810;-39
2020/12/29 06:33:10;;;;;;;;;;;;;;;27.12;28.82;100238.41;5119438;28;798;-40
2020/12/29 06:35:35;;;;;;;;;;;;;;;27.08;29.04;100228.19;5123061;27;1001;-39
2020/12/29 06:38:05;;;;;;;;;;;;;;;27.27;28.48;100237.47;5139668;27;750;-35
2020/12/29 06:40:31;;;;;;;;;;;;;;;27.74;27.34;100245.91;5139498;27;1893;-41
2020/12/29 06:42:56;;;;;;;;;;;;;;;27.26;27.95;100242.03;5139564;27;810;-44
2020/12/29 06:45:21;;;;;;;;;;;;;;;27.06;28.08;100246.47;5139118;27;802;-34
2020/12/29 06:47:47;;;;;;;;;;;;;;;26.92;28.44;100259.81;5139597;27;767;-43
2020/12/29 06:50:28;;;;;;;;;;;;;;;26.84;28.43;100246.44;5135953;27;953;-34
2020/12/29 06:52:57;;;;;;;;;;;;;;;26.73;28.73;100224.34;5118675;28;736;-43
2020/12/29 06:55:22;;;;;;;;;;;;;;;26.75;28.87;100225.00;5118755;28;751;-41
2020/12/29 06:57:48;;;;;;;;;;;;;;;26.70;29.02;100218.50;5118499;28;801;-43
2020/12/29 07:00:13;;;;;;;;;;;;;;;26.68;29.21;100207.91;5117265;28;1913;-35
2020/12/29 07:02:39;;;;;;;;;;;;;;;26.63;29.40;100203.09;5118670;28;759;-44
2020/12/29 07:05:13;;;;;;;;;;;;;;;26.61;29.60;100210.53;5118241;27;942;-34
2020/12/29 07:07:51;;;;;;;;;;;;;;;26.61;29.40;100209.72;5118637;28;763;-36
2020/12/29 07:10:17;;;;;;;;;;;;;;;26.49;29.51;100212.91;5130223;27;1153;-41
2020/12/29 07:12:43;;;;;;;;;;;;;;;26.51;29.47;100210.00;5138647;27;755;-43
2020/12/29 07:15:08;;;;;;;;;;;;;;;26.52;29.44;100214.38;5138690;27;1462;-44
2020/12/29 07:17:33;;;;;;;;;;;;;;;26.55;29.54;100207.75;5138707;27;827;-44
2020/12/29 07:19:59;;;;;;;;;;;;;;;26.46;29.57;100207.06;5136823;27;1992;-35
2020/12/29 07:22:25;;;;;;;;;;;;;;;26.47;29.46;100219.53;5118297;28;798;-36
2020/12/29 07:24:50;;;;;;;;;;;;;;;26.39;29.89;100212.41;5118263;28;795;-44
2020/12/29 07:27:19;;;;;;;;;;;;;;;26.43;29.81;100212.81;5117657;28;837;-43
2020/12/29 07:29:57;;;;;;;;;;;;;;;26.42;29.87;100217.41;5117743;28;522;-36
2020/12/29 07:32:22;;;;;;;;;;;;;;;26.44;30.08;100219.91;5117790;28;799;-44
2020/12/29 07:34:47;;;;;;;;;;;;;;;26.39;30.19;100226.69;5117472;28;739;-44
2020/12/29 07:37:14;;;;;;;;;;;;;;;26.40;30.25;100225.69;5117805;27;992;-35
2020/12/29 07:39:39;;;;;;;;;;;;;;;26.51;30.24;100227.03;5118164;28;1914;-40
2020/12/29 07:42:05;;;;;;;;;;;;;;;26.50;30.64;100235.31;5116445;28;810;-35
2020/12/29 07:44:30;;;;;;;;;;;;;;;26.58;30.73;100231.66;5116708;28;751;-34
2020/12/29 07:46:55;;;;;;;;;;;;;;;26.69;30.20;100224.94;5117784;28;875;-40
2020/12/29 07:49:20;;;;;;;;;;;;;;;26.67;30.43;100221.56;5117094;28;779;-34
2020/12/29 07:51:48;;;;;;;;;;;;;;;26.74;30.26;100239.50;5117284;27;985;-40
2020/12/29 07:54:14;;;;;;;;;;;;;;;26.76;30.50;100245.53;5117748;28;780;-37
2020/12/29 07:56:39;;;;;;;;;;;;;;;26.79;30.50;100238.94;5115810;28;1192;-46
2020/12/29 07:59:08;;;;;;;;;;;;;;;26.63;31.02;100231.91;5117823;28;1913;-36
2020/12/29 08:01:33;;;;;;;;;;;;;;;26.69;30.64;100219.53;5117124;28;989;-36
2020/12/29 08:03:58;;;;;;;;;;;;;;;26.68;30.72;100209.75;5117151;28;739;-46
2020/12/29 08:06:24;;;;;;;;;;;;;;;26.65;30.81;100219.91;5117259;27;996;-36
2020/12/29 08:08:58;;;;;;;;;;;;;;;26.67;30.66;100210.78;5117372;28;815;-35
2020/12/29 08:11:23;;;;;;;;;;;;;;;26.62;30.56;100211.38;5116720;28;803;-43
2020/12/29 08:13:48;;;;;;;;;;;;;;;26.68;30.51;100226.78;5118068;28;763;-44
2020/12/29 08:16:14;;;;;;;;;;;;;;;26.65;30.75;100236.09;5117154;28;851;-47
2020/12/29 08:18:39;;;;;;;;;;;;;;;26.63;30.68;100248.94;5115301;28;1314;-43
2020/12/29 08:21:05;;;;;;;;;;;;;;;26.62;30.84;100243.75;5116733;27;1972;-35
2020/12/29 08:23:30;;;;;;;;;;;;;;;26.62;30.68;100241.88;5116165;28;803;-33
2020/12/29 08:25:56;;;;;;;;;;;;;;;26.69;30.89;100249.22;5117015;28;835;-35
2020/12/29 08:28:25;;;;;;;;;;;;;;;26.66;30.77;100253.09;5117095;28;687;-41
2020/12/29 08:30:51;;;;;;;;;;;;;;;26.64;31.13;100239.00;5115387;28;899;-35
2020/12/29 08:33:18;;;;;;;;;;;;;;;26.72;30.51;100241.56;5116915;28;715;-38
2020/12/29 08:35:48;;;;;;;;;;;;;;;26.69;30.74;100236.56;5122811;27;1013;-43
2020/12/29 08:38:29;;;;;;;;;;;;;;;26.70;30.94;100240.91;5137858;27;830;-45
2020/12/29 08:41:15;;;;;;;;;;;;;;;26.65;30.71;100244.19;5136959;27;1984;-41
2020/12/29 08:43:41;;;;;;;;;;;;;;;26.47;30.37;100254.59;5126477;28;1325;-34
2020/12/29 08:46:07;;;;;;;;;;;;;;;26.51;29.71;100259.41;5137248;27;526;-42
2020/12/29 08:48:33;;;;;;;;;;;;;;;26.59;29.83;100273.81;5137369;27;842;-41
2020/12/29 08:50:58;;;;;;;;;;;;;;;26.31;29.09;100274.50;5127646;27;1016;-41
2020/12/29 08:53:26;;;;;;;;;;;;;;;26.60;27.81;100280.84;5116874;28;795;-38
2020/12/29 08:55:52;;;;;;;;;;;;;;;26.84;27.49;100278.81;5116748;28;794;-40
2020/12/29 08:58:23;;;;;;;;;;;;;;;25.92;27.94;100280.84;5116847;28;727;-41
2020/12/29 09:00:49;;;;;;;;;;;;;;;25.74;28.54;100270.44;5131152;28;1972;-39
2020/12/29 09:03:25;;;;;;;;;;;;;;;26.70;28.33;100262.50;5137148;27;803;-35
2020/12/29 09:05:51;;;;;;;;;;;;;;;26.82;28.46;100262.84;5128243;27;1008;-35
2020/12/29 09:08:28;;;;;;;;;;;;;;;26.89;28.50;100263.72;5116943;28;751;-42
2020/12/29 09:11:09;;;;;;;;;;;;;;;26.81;28.41;100261.16;5133770;28;1083;-34
2020/12/29 09:13:34;;;;;;;;;;;;;;;26.90;28.34;100261.84;5137054;27;808;-33
2020/12/29 09:16:09;;;;;;;;;;;;;;;26.93;28.56;100269.56;5137480;27;751;-34
2020/12/29 09:18:41;;;;;;;;;;;;;;;26.86;28.70;100257.88;5136589;27;1291;-44
2020/12/29 09:21:19;;;;;;;;;;;;;;;26.81;28.66;100263.03;5126310;27;1917;-43
2020/12/29 09:23:44;;;;;;;;;;;;;;;26.81;28.89;100254.94;5119063;28;794;-35
2020/12/29 09:26:09;;;;;;;;;;;;;;;26.67;28.81;100270.97;5120480;28;882;-45
2020/12/29 09:28:35;;;;;;;;;;;;;;;26.68;29.02;100259.16;5120450;28;928;-46
2020/12/29 09:31:01;;;;;;;;;;;;;;;26.74;28.85;100265.66;5120258;28;830;-35
2020/12/29 09:33:27;;;;;;;;;;;;;;;26.81;29.28;100263.84;5120375;28;719;-45
2020/12/29 09:35:52;;;;;;;;;;;;;;;26.74;29.10;100263.78;5119937;27;957;-42
2020/12/29 09:38:18;;;;;;;;;;;;;;;26.69;27.79;100270.78;5120378;28;759;-44
2020/12/29 09:40:45;;;;;;;;;;;;;;;26.40;27.09;100262.59;5120370;28;1953;-36
2020/12/29 09:43:10;;;;;;;;;;;;;;;26.43;26.85;100266.75;5119678;28;853;-37
2020/12/29 09:45:36;;;;;;;;;;;;;;;26.33;27.05;100281.41;5120147;28;747;-38
2020/12/29 09:48:01;;;;;;;;;;;;;;;26.36;26.88;100278.31;5119762;28;747;-42
2020/12/29 09:50:26;;;;;;;;;;;;;;;26.47;26.37;100273.47;5119339;27;954;-42
2020/12/29 09:52:51;;;;;;;;;;;;;;;26.47;26.55;100278.84;5120126;28;759;-42
2020/12/29 09:55:17;;;;;;;;;;;;;;;26.45;26.49;100279.03;5119477;28;883;-41
2020/12/29 09:57:42;;;;;;;;;;;;;;;26.62;26.23;100284.22;5119855;28;854;-40
2020/12/29 10:00:07;;;;;;;;;;;;;;;26.67;26.14;100284.47;5120094;28;1972;-42
2020/12/29 10:02:33;;;;;;;;;;;;;;;26.62;26.54;100282.34;5130957;27;1048;-42
2020/12/29 10:04:58;;;;;;;;;;;;;;;26.59;26.69;100296.19;5139030;27;1011;-43
2020/12/29 10:07:23;;;;;;;;;;;;;;;26.59;26.44;100298.91;5119593;28;816;-40
2020/12/29 10:09:49;;;;;;;;;;;;;;;26.70;26.47;100304.81;5127666;27;1166;-42
2020/12/29 10:12:14;;;;;;;;;;;;;;;26.81;26.61;100296.22;5139910;27;866;-41
2020/12/29 10:14:39;;;;;;;;;;;;;;;26.85;26.31;100286.72;5139905;27;791;-42
2020/12/29 10:17:05;;;;;;;;;;;;;;;26.84;26.54;100279.66;5139745;27;810;-42
2020/12/29 10:19:30;;;;;;;;;;;;;;;26.89;26.13;100279.91;5139657;27;1901;-42
2020/12/29 10:21:55;;;;;;;;;;;;;;;26.87;26.53;100270.34;5122454;27;956;-42
2020/12/29 10:24:21;;;;;;;;;;;;;;;26.89;26.23;100284.50;5119015;28;731;-41
2020/12/29 10:26:52;;;;;;;;;;;;;;;26.80;26.56;100275.69;5119344;28;759;-42
2020/12/29 10:29:18;;;;;;;;;;;;;;;26.82;26.55;100291.66;5119262;28;790;-41
2020/12/29 10:31:43;;;;;;;;;;;;;;;26.68;26.48;100286.13;5118804;28;810;-40
2020/12/29 10:34:12;;;;;;;;;;;;;;;26.46;26.96;100283.41;5119042;28;732;-42
2020/12/29 10:36:37;;;;;;;;;;;;;;;26.62;26.70;100273.41;5119018;27;949;-42
2020/12/29 10:39:03;;;;;;;;;;;;;;;26.38;26.88;100286.22;5118492;28;838;-41
2020/12/29 10:41:29;;;;;;;;;;;;;;;26.56;26.77;100279.59;5119049;28;1966;-42
2020/12/29 10:43:54;;;;;;;;;;;;;;;26.55;26.75;100280.59;5119251;28;782;-39
2020/12/29 10:46:19;;;;;;;;;;;;;;;26.45;27.22;100279.03;5118595;28;938;-43
2020/12/29 10:48:45;;;;;;;;;;;;;;;26.38;27.01;100286.22;5119182;28;767;-40
2020/12/29 10:51:15;;;;;;;;;;;;;;;26.27;27.18;100274.88;5125495;27;807;-41
2020/12/29 10:53:40;;;;;;;;;;;;;;;26.28;27.25;100273.84;5118486;28;799;-41
2020/12/29 10:56:08;;;;;;;;;;;;;;;26.20;27.38;100284.75;5118830;28;811;-43
2020/12/29 10:58:33;;;;;;;;;;;;;;;26.10;27.50;100276.09;5118443;28;807;-42
2020/12/29 11:00:59;;;;;;;;;;;;;;;26.18;27.51;100265.22;5118448;28;1898;-39
2020/12/29 11:03:24;;;;;;;;;;;;;;;26.11;27.56;100267.00;5118619;28;806;-41
2020/12/29 11:05:49;;;;;;;;;;;;;;;26.11;27.62;100273.22;5118092;27;941;-43
2020/12/29 11:08:14;;;;;;;;;;;;;;;26.13;27.47;100265.78;5118278;28;819;-43
2020/12/29 11:10:40;;;;;;;;;;;;;;;26.17;27.71;100263.56;5133718;27;1090;-42
2020/12/29 11:13:05;;;;;;;;;;;;;;;25.85;28.13;100271.00;5138480;27;1051;-41
2020/12/29 11:15:30;;;;;;;;;;;;;;;25.69;28.33;100264.78;5138429;27;806;-41
2020/12/29 11:17:55;;;;;;;;;;;;;;;25.63;28.12;100252.88;5138928;27;806;-42
2020/12/29 11:20:21;;;;;;;;;;;;;;;25.00;28.97;100240.50;5133881;27;1906;-41
2020/12/29 11:22:46;;;;;;;;;;;;;;;23.77;31.44;100246.34;5117987;28;818;-40
2020/12/29 11:25:11;;;;;;;;;;;;;;;24.34;30.79;100245.28;5137802;27;1036;-40
2020/12/29 11:27:36;;;;;;;;;;;;;;;25.03;29.57;100233.91;5138263;27;1090;-42
2020/12/29 11:30:02;;;;;;;;;;;;;;;25.76;28.39;100229.84;5138127;27;1312;-41
2020/12/29 11:32:27;;;;;;;;;;;;;;;25.94;27.94;100237.56;5138826;27;799;-39
2020/12/29 11:34:53;;;;;;;;;;;;;;;25.55;28.26;100237.63;5137849;27;1147;-40
2020/12/29 11:37:18;;;;;;;;;;;;;;;25.61;28.25;100241.44;5135875;27;959;-39
2020/12/29 11:39:43;;;;;;;;;;;;;;;25.56;28.12;100252.75;5138094;27;1897;-42
2020/12/29 11:42:09;;;;;;;;;;;;;;;25.72;27.60;100245.56;5138368;27;758;-41
2020/12/29 11:44:34;;;;;;;;;;;;;;;25.72;27.73;100250.09;5138141;27;858;-41
2020/12/29 11:46:59;;;;;;;;;;;;;;;25.69;27.62;100262.09;5137691;27;751;-41
2020/12/29 11:49:24;;;;;;;;;;;;;;;25.33;27.80;100255.50;5138201;27;794;-42
2020/12/29 11:51:50;;;;;;;;;;;;;;;25.52;27.63;100256.88;5131735;27;996;-41
2020/12/29 11:54:15;;;;;;;;;;;;;;;25.98;26.99;100257.72;5137412;27;1177;-41
2020/12/29 11:56:41;;;;;;;;;;;;;;;26.19;26.46;100255.28;5138318;27;794;-42
2020/12/29 11:59:06;;;;;;;;;;;;;;;26.14;26.60;100269.31;5137523;27;1079;-41
2020/12/29 12:01:31;;;;;;;;;;;;;;;26.20;26.75;100281.19;5137983;27;1909;-41
2020/12/29 12:03:56;;;;;;;;;;;;;;;26.25;26.67;100273.38;5137858;27;1035;-41
2020/12/29 12:06:30;;;;;;;;;;;;;;;26.32;26.79;100274.31;5124858;27;1280;-40
2020/12/29 12:08:55;;;;;;;;;;;;;;;26.28;26.56;100271.16;5117723;27;1071;-41
2020/12/29 12:11:26;;;;;;;;;;;;;;;26.33;26.60;100267.91;5138350;27;802;-40
2020/12/29 12:13:51;;;;;;;;;;;;;;;26.35;26.39;100260.47;5137575;27;830;-38
2020/12/29 12:16:17;;;;;;;;;;;;;;;26.27;26.44;100250.63;5137803;27;810;-41
2020/12/29 12:18:42;;;;;;;;;;;;;;;26.18;26.57;100259.81;5137695;27;1054;-40
2020/12/29 12:21:07;;;;;;;;;;;;;;;26.23;26.45;100264.63;5126842;27;1984;-39
2020/12/29 12:23:32;;;;;;;;;;;;;;;26.27;26.59;100276.72;5116881;28;798;-41
2020/12/29 12:25:58;;;;;;;;;;;;;;;26.08;26.35;100280.84;5117358;28;782;-42
2020/12/29 12:28:24;;;;;;;;;;;;;;;26.17;26.42;100288.63;5117045;28;822;-39
2020/12/29 12:30:49;;;;;;;;;;;;;;;26.20;26.34;100292.81;5116937;28;810;-41
2020/12/29 12:33:14;;;;;;;;;;;;;;;26.04;26.18;100302.78;5116893;28;791;-40
2020/12/29 12:35:40;;;;;;;;;;;;;;;26.11;26.24;100310.13;5116577;27;1012;-42
2020/12/29 12:38:05;;;;;;;;;;;;;;;26.15;26.20;100304.19;5116857;28;791;-41
2020/12/29 12:40:30;;;;;;;;;;;;;;;26.25;26.14;100311.13;5117060;28;1913;-41
2020/12/29 12:42:55;;;;;;;;;;;;;;;26.35;26.12;100321.66;5116971;28;779;-40
2020/12/29 12:45:21;;;;;;;;;;;;;;;26.48;26.20;100323.66;5116684;28;819;-40
2020/12/29 12:47:46;;;;;;;;;;;;;;;26.33;26.13;100319.16;5117020;28;751;-41